sensor_id;sensor_type;location;lat;lon;timestamp;P1;durP1;ratioP1;P2;durP2;ratioP2
8819;SDS011;4446;50.876;4.736;2022-09-30T00:02:18;11.02;;;9.18;;
8819;SDS011;4446;50.876;4.736;2022-09-30T00:04:45;10.80;;;9.50;;
8819;SDS011;4446;50.876;4.736;2022-09-30T00:07:13;10.80;;;9.45;;
8819;SDS011;4446;50.876;4.736;2022-09-30T00:09:40;12.43;;;9.70;;
8819;SDS011;4446;50.876;4.736;2022-09-30T00:12:07;12.43;;;9.38;;
8819;SDS011;4446;50.876;4.736;2022-09-30T00:14:35;11.30;;;8.98;;
8819;SDS011;4446;50.876;4.736;2022-09-30T00:17:03;9.75;;;8.65;;
8819;SDS011;4446;50.876;4.736;2022-09-30T00:19:30;12.05;;;9.18;;
8819;SDS011;4446;50.876;4.736;2022-09-30T00:21:57;10.13;;;8.88;;
8819;SDS011;4446;50.876;4.736;2022-09-30T00:24:25;10.35;;;9.20;;
8819;SDS011;4446;50.876;4.736;2022-09-30T00:26:52;11.80;;;9.63;;
8819;SDS011;4446;50.876;4.736;2022-09-30T00:29:19;11.35;;;9.50;;
8819;SDS011;4446;50.876;4.736;2022-09-30T00:31:46;11.55;;;10.25;;
8819;SDS011;4446;50.876;4.736;2022-09-30T00:34:13;15.45;;;11.18;;
8819;SDS011;4446;50.876;4.736;2022-09-30T00:36:42;11.50;;;9.90;;
8819;SDS011;4446;50.876;4.736;2022-09-30T00:39:12;11.68;;;10.07;;
8819;SDS011;4446;50.876;4.736;2022-09-30T00:41:44;11.75;;;10.15;;
8819;SDS011;4446;50.876;4.736;2022-09-30T00:50:13;13.18;;;10.75;;
8819;SDS011;4446;50.876;4.736;2022-09-30T00:52:49;11.68;;;10.30;;
8819;SDS011;4446;50.876;4.736;2022-09-30T00:55:26;12.95;;;10.35;;
8819;SDS011;4446;50.876;4.736;2022-09-30T00:58:01;14.65;;;9.93;;
8819;SDS011;4446;50.876;4.736;2022-09-30T01:00:31;13.18;;;10.02;;
8819;SDS011;4446;50.876;4.736;2022-09-30T01:02:58;12.85;;;10.13;;
8819;SDS011;4446;50.876;4.736;2022-09-30T01:05:26;11.75;;;10.38;;
8819;SDS011;4446;50.876;4.736;2022-09-30T01:07:54;13.77;;;10.52;;
8819;SDS011;4446;50.876;4.736;2022-09-30T01:10:23;13.30;;;10.88;;
8819;SDS011;4446;50.876;4.736;2022-09-30T01:12:50;13.27;;;11.68;;
8819;SDS011;4446;50.876;4.736;2022-09-30T01:15:19;12.25;;;11.00;;
8819;SDS011;4446;50.876;4.736;2022-09-30T01:17:49;12.52;;;11.05;;
8819;SDS011;4446;50.876;4.736;2022-09-30T01:20:38;13.40;;;11.23;;
8819;SDS011;4446;50.876;4.736;2022-09-30T01:23:22;13.98;;;10.48;;
8819;SDS011;4446;50.876;4.736;2022-09-30T01:26:13;15.07;;;11.50;;
8819;SDS011;4446;50.876;4.736;2022-09-30T01:29:06;16.75;;;11.73;;
8819;SDS011;4446;50.876;4.736;2022-09-30T01:31:55;15.32;;;11.63;;
8819;SDS011;4446;50.876;4.736;2022-09-30T01:34:33;13.38;;;11.75;;
8819;SDS011;4446;50.876;4.736;2022-09-30T01:37:13;13.27;;;10.90;;
8819;SDS011;4446;50.876;4.736;2022-09-30T01:39:49;16.75;;;11.93;;
8819;SDS011;4446;50.876;4.736;2022-09-30T01:42:24;17.30;;;12.05;;
8819;SDS011;4446;50.876;4.736;2022-09-30T01:44:59;12.30;;;9.63;;
8819;SDS011;4446;50.876;4.736;2022-09-30T01:47:35;13.88;;;10.60;;
8819;SDS011;4446;50.876;4.736;2022-09-30T01:50:12;12.27;;;9.88;;
8819;SDS011;4446;50.876;4.736;2022-09-30T01:52:43;12.15;;;10.00;;
8819;SDS011;4446;50.876;4.736;2022-09-30T01:55:19;15.07;;;10.55;;
8819;SDS011;4446;50.876;4.736;2022-09-30T01:57:51;15.80;;;10.77;;
8819;SDS011;4446;50.876;4.736;2022-09-30T02:00:23;11.80;;;10.32;;
8819;SDS011;4446;50.876;4.736;2022-09-30T02:02:54;12.88;;;10.07;;
8819;SDS011;4446;50.876;4.736;2022-09-30T02:05:25;14.60;;;10.77;;
8819;SDS011;4446;50.876;4.736;2022-09-30T02:08:01;17.25;;;11.20;;
8819;SDS011;4446;50.876;4.736;2022-09-30T02:10:34;14.23;;;11.50;;
8819;SDS011;4446;50.876;4.736;2022-09-30T02:13:07;18.30;;;12.55;;
8819;SDS011;4446;50.876;4.736;2022-09-30T02:15:40;13.50;;;11.02;;
8819;SDS011;4446;50.876;4.736;2022-09-30T02:18:14;15.48;;;10.65;;
8819;SDS011;4446;50.876;4.736;2022-09-30T02:20:46;12.02;;;10.52;;
8819;SDS011;4446;50.876;4.736;2022-09-30T02:23:18;17.02;;;12.55;;
8819;SDS011;4446;50.876;4.736;2022-09-30T02:25:50;14.80;;;12.40;;
8819;SDS011;4446;50.876;4.736;2022-09-30T02:28:21;15.40;;;12.00;;
8819;SDS011;4446;50.876;4.736;2022-09-30T02:30:52;12.55;;;11.02;;
8819;SDS011;4446;50.876;4.736;2022-09-30T02:33:25;13.82;;;10.60;;
8819;SDS011;4446;50.876;4.736;2022-09-30T02:36:00;15.73;;;11.57;;
8819;SDS011;4446;50.876;4.736;2022-09-30T02:38:32;12.68;;;10.23;;
8819;SDS011;4446;50.876;4.736;2022-09-30T02:41:05;13.57;;;11.07;;
8819;SDS011;4446;50.876;4.736;2022-09-30T02:43:36;13.93;;;11.32;;
8819;SDS011;4446;50.876;4.736;2022-09-30T02:46:07;18.30;;;12.93;;
8819;SDS011;4446;50.876;4.736;2022-09-30T02:48:43;19.60;;;14.40;;
8819;SDS011;4446;50.876;4.736;2022-09-30T02:51:14;19.20;;;13.50;;
8819;SDS011;4446;50.876;4.736;2022-09-30T02:53:48;20.17;;;14.05;;
8819;SDS011;4446;50.876;4.736;2022-09-30T02:56:22;24.13;;;17.85;;
8819;SDS011;4446;50.876;4.736;2022-09-30T02:58:52;22.10;;;16.45;;
8819;SDS011;4446;50.876;4.736;2022-09-30T03:01:21;20.33;;;15.07;;
8819;SDS011;4446;50.876;4.736;2022-09-30T03:03:52;22.92;;;15.10;;
8819;SDS011;4446;50.876;4.736;2022-09-30T03:06:20;22.23;;;16.40;;
8819;SDS011;4446;50.876;4.736;2022-09-30T03:08:48;19.70;;;15.68;;
8819;SDS011;4446;50.876;4.736;2022-09-30T03:11:17;21.02;;;15.13;;
8819;SDS011;4446;50.876;4.736;2022-09-30T03:13:54;24.30;;;16.10;;
8819;SDS011;4446;50.876;4.736;2022-09-30T03:16:54;20.40;;;16.27;;
8819;SDS011;4446;50.876;4.736;2022-09-30T03:19:49;22.80;;;16.45;;
8819;SDS011;4446;50.876;4.736;2022-09-30T03:22:36;26.77;;;18.40;;
8819;SDS011;4446;50.876;4.736;2022-09-30T03:25:24;22.23;;;16.88;;
8819;SDS011;4446;50.876;4.736;2022-09-30T03:28:01;22.10;;;15.93;;
8819;SDS011;4446;50.876;4.736;2022-09-30T03:30:41;22.45;;;16.45;;
8819;SDS011;4446;50.876;4.736;2022-09-30T03:33:15;22.13;;;16.80;;
8819;SDS011;4446;50.876;4.736;2022-09-30T03:35:51;23.23;;;17.00;;
8819;SDS011;4446;50.876;4.736;2022-09-30T03:38:27;27.77;;;19.35;;
8819;SDS011;4446;50.876;4.736;2022-09-30T03:41:04;25.35;;;17.48;;
8819;SDS011;4446;50.876;4.736;2022-09-30T03:43:36;24.10;;;17.17;;
8819;SDS011;4446;50.876;4.736;2022-09-30T03:46:09;24.83;;;17.33;;
8819;SDS011;4446;50.876;4.736;2022-09-30T03:48:41;24.65;;;17.52;;
8819;SDS011;4446;50.876;4.736;2022-09-30T03:51:11;29.80;;;19.05;;
8819;SDS011;4446;50.876;4.736;2022-09-30T03:53:39;28.30;;;18.95;;
8819;SDS011;4446;50.876;4.736;2022-09-30T03:56:06;27.67;;;19.40;;
8819;SDS011;4446;50.876;4.736;2022-09-30T03:58:34;30.17;;;19.40;;
8819;SDS011;4446;50.876;4.736;2022-09-30T04:01:06;28.98;;;18.77;;
8819;SDS011;4446;50.876;4.736;2022-09-30T04:03:33;26.17;;;18.45;;
8819;SDS011;4446;50.876;4.736;2022-09-30T04:06:00;25.35;;;18.48;;
8819;SDS011;4446;50.876;4.736;2022-09-30T04:08:29;25.70;;;17.08;;
8819;SDS011;4446;50.876;4.736;2022-09-30T04:10:56;25.88;;;18.00;;
8819;SDS011;4446;50.876;4.736;2022-09-30T04:13:23;24.25;;;17.65;;
8819;SDS011;4446;50.876;4.736;2022-09-30T04:15:53;25.60;;;16.83;;
8819;SDS011;4446;50.876;4.736;2022-09-30T04:18:20;26.80;;;17.92;;
8819;SDS011;4446;50.876;4.736;2022-09-30T04:20:47;25.98;;;17.67;;
8819;SDS011;4446;50.876;4.736;2022-09-30T04:23:14;28.85;;;18.75;;
8819;SDS011;4446;50.876;4.736;2022-09-30T04:25:42;31.05;;;19.83;;
8819;SDS011;4446;50.876;4.736;2022-09-30T04:28:16;29.77;;;18.88;;
8819;SDS011;4446;50.876;4.736;2022-09-30T04:30:43;31.83;;;20.05;;
8819;SDS011;4446;50.876;4.736;2022-09-30T04:33:10;31.25;;;19.75;;
8819;SDS011;4446;50.876;4.736;2022-09-30T04:35:37;31.60;;;20.08;;
8819;SDS011;4446;50.876;4.736;2022-09-30T04:38:05;30.98;;;19.98;;
8819;SDS011;4446;50.876;4.736;2022-09-30T04:40:34;30.08;;;20.33;;
8819;SDS011;4446;50.876;4.736;2022-09-30T04:43:03;27.33;;;19.42;;
8819;SDS011;4446;50.876;4.736;2022-09-30T04:45:30;30.65;;;20.05;;
8819;SDS011;4446;50.876;4.736;2022-09-30T04:47:57;28.80;;;19.00;;
8819;SDS011;4446;50.876;4.736;2022-09-30T04:50:24;29.00;;;20.15;;
8819;SDS011;4446;50.876;4.736;2022-09-30T04:52:51;27.67;;;19.42;;
8819;SDS011;4446;50.876;4.736;2022-09-30T04:55:21;29.63;;;20.25;;
8819;SDS011;4446;50.876;4.736;2022-09-30T04:57:49;28.35;;;18.45;;
8819;SDS011;4446;50.876;4.736;2022-09-30T05:00:17;25.88;;;17.88;;
8819;SDS011;4446;50.876;4.736;2022-09-30T05:02:44;25.17;;;17.83;;
8819;SDS011;4446;50.876;4.736;2022-09-30T05:05:12;26.35;;;18.40;;
8819;SDS011;4446;50.876;4.736;2022-09-30T05:07:39;24.02;;;17.35;;
8819;SDS011;4446;50.876;4.736;2022-09-30T05:10:06;27.15;;;17.88;;
8819;SDS011;4446;50.876;4.736;2022-09-30T05:12:35;25.33;;;17.83;;
8819;SDS011;4446;50.876;4.736;2022-09-30T05:15:02;25.50;;;18.02;;
8819;SDS011;4446;50.876;4.736;2022-09-30T05:17:31;26.73;;;18.08;;
8819;SDS011;4446;50.876;4.736;2022-09-30T05:19:59;29.52;;;19.42;;
8819;SDS011;4446;50.876;4.736;2022-09-30T05:22:26;28.27;;;19.17;;
8819;SDS011;4446;50.876;4.736;2022-09-30T05:24:54;28.55;;;18.20;;
8819;SDS011;4446;50.876;4.736;2022-09-30T05:27:21;27.63;;;18.33;;
8819;SDS011;4446;50.876;4.736;2022-09-30T05:29:49;25.17;;;17.98;;
8819;SDS011;4446;50.876;4.736;2022-09-30T05:32:16;26.83;;;18.48;;
8819;SDS011;4446;50.876;4.736;2022-09-30T05:34:46;30.05;;;18.85;;
8819;SDS011;4446;50.876;4.736;2022-09-30T05:37:13;24.85;;;17.23;;
8819;SDS011;4446;50.876;4.736;2022-09-30T05:39:40;28.67;;;20.05;;
8819;SDS011;4446;50.876;4.736;2022-09-30T05:42:08;29.77;;;18.98;;
8819;SDS011;4446;50.876;4.736;2022-09-30T05:44:34;29.35;;;18.30;;
8819;SDS011;4446;50.876;4.736;2022-09-30T05:47:01;31.35;;;19.30;;
8819;SDS011;4446;50.876;4.736;2022-09-30T05:49:29;28.27;;;19.13;;
8819;SDS011;4446;50.876;4.736;2022-09-30T05:52:00;31.48;;;19.52;;
8819;SDS011;4446;50.876;4.736;2022-09-30T05:54:27;28.70;;;19.13;;
8819;SDS011;4446;50.876;4.736;2022-09-30T05:56:54;30.70;;;19.25;;
8819;SDS011;4446;50.876;4.736;2022-09-30T05:59:21;30.98;;;18.92;;
8819;SDS011;4446;50.876;4.736;2022-09-30T06:01:48;28.00;;;19.25;;
8819;SDS011;4446;50.876;4.736;2022-09-30T06:04:15;30.38;;;19.45;;
8819;SDS011;4446;50.876;4.736;2022-09-30T06:06:42;32.22;;;19.98;;
8819;SDS011;4446;50.876;4.736;2022-09-30T06:09:10;28.70;;;20.05;;
8819;SDS011;4446;50.876;4.736;2022-09-30T06:11:37;33.38;;;20.92;;
8819;SDS011;4446;50.876;4.736;2022-09-30T06:14:06;28.50;;;19.85;;
8819;SDS011;4446;50.876;4.736;2022-09-30T06:16:33;31.75;;;21.88;;
8819;SDS011;4446;50.876;4.736;2022-09-30T06:19:00;32.00;;;21.58;;
8819;SDS011;4446;50.876;4.736;2022-09-30T06:21:27;30.48;;;21.10;;
8819;SDS011;4446;50.876;4.736;2022-09-30T06:23:54;34.58;;;22.30;;
8819;SDS011;4446;50.876;4.736;2022-09-30T06:26:22;36.72;;;23.50;;
8819;SDS011;4446;50.876;4.736;2022-09-30T06:28:49;36.35;;;23.52;;
8819;SDS011;4446;50.876;4.736;2022-09-30T06:31:17;33.70;;;22.63;;
8819;SDS011;4446;50.876;4.736;2022-09-30T06:33:44;39.22;;;25.02;;
8819;SDS011;4446;50.876;4.736;2022-09-30T06:36:11;38.88;;;23.85;;
8819;SDS011;4446;50.876;4.736;2022-09-30T06:38:38;38.67;;;24.88;;
8819;SDS011;4446;50.876;4.736;2022-09-30T06:41:06;36.95;;;23.77;;
8819;SDS011;4446;50.876;4.736;2022-09-30T06:43:35;39.42;;;25.08;;
8819;SDS011;4446;50.876;4.736;2022-09-30T06:46:04;40.90;;;25.20;;
8819;SDS011;4446;50.876;4.736;2022-09-30T06:48:31;40.38;;;25.33;;
8819;SDS011;4446;50.876;4.736;2022-09-30T06:50:58;42.60;;;26.55;;
8819;SDS011;4446;50.876;4.736;2022-09-30T06:53:25;39.72;;;27.35;;
8819;SDS011;4446;50.876;4.736;2022-09-30T06:55:53;39.45;;;26.27;;
8819;SDS011;4446;50.876;4.736;2022-09-30T06:58:21;43.42;;;27.23;;
8819;SDS011;4446;50.876;4.736;2022-09-30T07:00:56;44.38;;;27.52;;
8819;SDS011;4446;50.876;4.736;2022-09-30T07:03:24;47.50;;;29.05;;
8819;SDS011;4446;50.876;4.736;2022-09-30T07:05:54;54.75;;;30.67;;
8819;SDS011;4446;50.876;4.736;2022-09-30T07:08:22;48.17;;;29.85;;
8819;SDS011;4446;50.876;4.736;2022-09-30T07:10:53;49.63;;;30.17;;
8819;SDS011;4446;50.876;4.736;2022-09-30T07:13:20;44.40;;;30.17;;
8819;SDS011;4446;50.876;4.736;2022-09-30T07:15:47;48.55;;;29.98;;
8819;SDS011;4446;50.876;4.736;2022-09-30T07:18:17;48.83;;;30.35;;
8819;SDS011;4446;50.876;4.736;2022-09-30T07:20:48;52.90;;;31.38;;
8819;SDS011;4446;50.876;4.736;2022-09-30T07:23:16;53.13;;;32.10;;
8819;SDS011;4446;50.876;4.736;2022-09-30T07:25:47;51.15;;;32.15;;
8819;SDS011;4446;50.876;4.736;2022-09-30T07:28:16;56.50;;;32.63;;
8819;SDS011;4446;50.876;4.736;2022-09-30T07:30:43;60.63;;;33.58;;
8819;SDS011;4446;50.876;4.736;2022-09-30T07:33:11;62.88;;;36.65;;
8819;SDS011;4446;50.876;4.736;2022-09-30T07:35:42;59.45;;;34.85;;
8819;SDS011;4446;50.876;4.736;2022-09-30T07:38:16;63.53;;;36.47;;
8819;SDS011;4446;50.876;4.736;2022-09-30T07:40:50;66.53;;;37.88;;
8819;SDS011;4446;50.876;4.736;2022-09-30T07:43:18;62.00;;;35.42;;
8819;SDS011;4446;50.876;4.736;2022-09-30T07:45:46;64.70;;;36.40;;
8819;SDS011;4446;50.876;4.736;2022-09-30T07:48:14;68.40;;;37.70;;
8819;SDS011;4446;50.876;4.736;2022-09-30T07:50:56;65.97;;;37.05;;
8819;SDS011;4446;50.876;4.736;2022-09-30T07:53:23;75.18;;;38.95;;
8819;SDS011;4446;50.876;4.736;2022-09-30T07:55:51;71.80;;;40.28;;
8819;SDS011;4446;50.876;4.736;2022-09-30T07:58:18;70.22;;;38.33;;
8819;SDS011;4446;50.876;4.736;2022-09-30T08:00:45;74.47;;;40.08;;
8819;SDS011;4446;50.876;4.736;2022-09-30T08:03:15;71.80;;;39.55;;
8819;SDS011;4446;50.876;4.736;2022-09-30T08:05:42;65.55;;;38.50;;
8819;SDS011;4446;50.876;4.736;2022-09-30T08:08:11;69.70;;;39.47;;
8819;SDS011;4446;50.876;4.736;2022-09-30T08:10:38;70.68;;;39.25;;
8819;SDS011;4446;50.876;4.736;2022-09-30T08:13:05;72.68;;;39.67;;
8819;SDS011;4446;50.876;4.736;2022-09-30T08:15:32;70.25;;;38.38;;
8819;SDS011;4446;50.876;4.736;2022-09-30T08:17:59;64.60;;;38.38;;
8819;SDS011;4446;50.876;4.736;2022-09-30T08:20:26;70.22;;;39.25;;
8819;SDS011;4446;50.876;4.736;2022-09-30T08:22:53;70.28;;;37.08;;
8819;SDS011;4446;50.876;4.736;2022-09-30T08:25:23;58.90;;;37.10;;
8819;SDS011;4446;50.876;4.736;2022-09-30T08:27:51;65.60;;;36.67;;
8819;SDS011;4446;50.876;4.736;2022-09-30T08:30:19;66.22;;;37.38;;
8819;SDS011;4446;50.876;4.736;2022-09-30T08:32:46;66.72;;;36.17;;
8819;SDS011;4446;50.876;4.736;2022-09-30T08:35:13;58.28;;;35.50;;
8819;SDS011;4446;50.876;4.736;2022-09-30T08:37:40;59.95;;;35.25;;
8819;SDS011;4446;50.876;4.736;2022-09-30T08:40:09;60.22;;;34.80;;
8819;SDS011;4446;50.876;4.736;2022-09-30T08:42:48;61.47;;;34.85;;
8819;SDS011;4446;50.876;4.736;2022-09-30T08:45:34;55.42;;;31.80;;
8819;SDS011;4446;50.876;4.736;2022-09-30T08:48:16;52.22;;;32.75;;
8819;SDS011;4446;50.876;4.736;2022-09-30T08:50:56;52.45;;;31.75;;
8819;SDS011;4446;50.876;4.736;2022-09-30T08:53:32;45.88;;;30.75;;
8819;SDS011;4446;50.876;4.736;2022-09-30T08:56:01;49.17;;;30.85;;
8819;SDS011;4446;50.876;4.736;2022-09-30T08:58:32;47.13;;;29.40;;
8819;SDS011;4446;50.876;4.736;2022-09-30T09:01:03;43.60;;;28.65;;
8819;SDS011;4446;50.876;4.736;2022-09-30T09:03:35;43.65;;;28.60;;
8819;SDS011;4446;50.876;4.736;2022-09-30T09:06:09;42.60;;;27.33;;
8819;SDS011;4446;50.876;4.736;2022-09-30T09:08:47;44.30;;;29.00;;
8819;SDS011;4446;50.876;4.736;2022-09-30T09:11:26;41.65;;;27.88;;
8819;SDS011;4446;50.876;4.736;2022-09-30T09:14:03;41.60;;;27.73;;
8819;SDS011;4446;50.876;4.736;2022-09-30T09:16:38;37.90;;;25.88;;
8819;SDS011;4446;50.876;4.736;2022-09-30T09:19:11;34.53;;;24.52;;
8819;SDS011;4446;50.876;4.736;2022-09-30T09:21:46;35.95;;;24.98;;
8819;SDS011;4446;50.876;4.736;2022-09-30T09:24:18;32.22;;;22.60;;
8819;SDS011;4446;50.876;4.736;2022-09-30T09:26:47;27.25;;;20.55;;
8819;SDS011;4446;50.876;4.736;2022-09-30T09:29:24;23.88;;;19.08;;
8819;SDS011;4446;50.876;4.736;2022-09-30T09:32:07;28.42;;;21.95;;
8819;SDS011;4446;50.876;4.736;2022-09-30T09:34:38;26.05;;;19.65;;
8819;SDS011;4446;50.876;4.736;2022-09-30T09:37:08;24.55;;;19.02;;
8819;SDS011;4446;50.876;4.736;2022-09-30T09:42:34;22.92;;;17.40;;
8819;SDS011;4446;50.876;4.736;2022-09-30T09:45:14;18.55;;;15.20;;
8819;SDS011;4446;50.876;4.736;2022-09-30T09:47:49;17.67;;;14.32;;
8819;SDS011;4446;50.876;4.736;2022-09-30T09:50:18;15.25;;;12.48;;
8819;SDS011;4446;50.876;4.736;2022-09-30T09:53:04;13.60;;;11.60;;
8819;SDS011;4446;50.876;4.736;2022-09-30T09:55:41;14.60;;;11.23;;
8819;SDS011;4446;50.876;4.736;2022-09-30T09:58:09;13.07;;;11.18;;
8819;SDS011;4446;50.876;4.736;2022-09-30T10:00:39;12.65;;;10.57;;
8819;SDS011;4446;50.876;4.736;2022-09-30T10:03:24;13.02;;;10.77;;
8819;SDS011;4446;50.876;4.736;2022-09-30T10:06:00;13.95;;;10.38;;
8819;SDS011;4446;50.876;4.736;2022-09-30T10:08:32;14.13;;;10.35;;
8819;SDS011;4446;50.876;4.736;2022-09-30T10:11:01;13.70;;;10.30;;
8819;SDS011;4446;50.876;4.736;2022-09-30T10:13:30;10.55;;;9.15;;
8819;SDS011;4446;50.876;4.736;2022-09-30T10:16:08;9.20;;;8.10;;
8819;SDS011;4446;50.876;4.736;2022-09-30T10:18:52;8.80;;;6.82;;
8819;SDS011;4446;50.876;4.736;2022-09-30T10:21:21;8.50;;;5.95;;
8819;SDS011;4446;50.876;4.736;2022-09-30T10:23:49;7.38;;;5.68;;
8819;SDS011;4446;50.876;4.736;2022-09-30T10:26:17;6.72;;;4.43;;
8819;SDS011;4446;50.876;4.736;2022-09-30T10:28:46;5.88;;;4.88;;
8819;SDS011;4446;50.876;4.736;2022-09-30T10:31:17;6.55;;;4.88;;
8819;SDS011;4446;50.876;4.736;2022-09-30T10:33:52;4.53;;;4.05;;
8819;SDS011;4446;50.876;4.736;2022-09-30T10:36:22;6.55;;;4.32;;
8819;SDS011;4446;50.876;4.736;2022-09-30T10:38:57;3.72;;;3.33;;
8819;SDS011;4446;50.876;4.736;2022-09-30T10:41:26;4.90;;;3.83;;
8819;SDS011;4446;50.876;4.736;2022-09-30T10:43:56;4.45;;;3.50;;
8819;SDS011;4446;50.876;4.736;2022-09-30T10:46:28;4.55;;;3.45;;
8819;SDS011;4446;50.876;4.736;2022-09-30T10:48:59;3.88;;;2.28;;
8819;SDS011;4446;50.876;4.736;2022-09-30T10:51:35;4.13;;;2.47;;
8819;SDS011;4446;50.876;4.736;2022-09-30T10:54:03;2.72;;;2.45;;
8819;SDS011;4446;50.876;4.736;2022-09-30T10:56:31;4.47;;;2.20;;
8819;SDS011;4446;50.876;4.736;2022-09-30T10:59:11;2.65;;;2.10;;
8819;SDS011;4446;50.876;4.736;2022-09-30T11:01:51;3.65;;;1.88;;
8819;SDS011;4446;50.876;4.736;2022-09-30T11:04:24;2.30;;;2.10;;
8819;SDS011;4446;50.876;4.736;2022-09-30T11:06:55;2.58;;;2.10;;
8819;SDS011;4446;50.876;4.736;2022-09-30T11:09:32;2.00;;;1.80;;
8819;SDS011;4446;50.876;4.736;2022-09-30T11:12:03;1.90;;;1.50;;
8819;SDS011;4446;50.876;4.736;2022-09-30T11:14:38;2.42;;;1.90;;
8819;SDS011;4446;50.876;4.736;2022-09-30T11:17:17;1.65;;;1.40;;
8819;SDS011;4446;50.876;4.736;2022-09-30T11:19:53;3.67;;;2.10;;
8819;SDS011;4446;50.876;4.736;2022-09-30T11:22:35;1.90;;;1.70;;
8819;SDS011;4446;50.876;4.736;2022-09-30T11:25:07;2.78;;;1.83;;
8819;SDS011;4446;50.876;4.736;2022-09-30T11:27:47;2.22;;;1.50;;
8819;SDS011;4446;50.876;4.736;2022-09-30T11:30:28;2.50;;;1.40;;
8819;SDS011;4446;50.876;4.736;2022-09-30T11:33:04;2.85;;;1.60;;
8819;SDS011;4446;50.876;4.736;2022-09-30T11:35:48;2.03;;;1.80;;
8819;SDS011;4446;50.876;4.736;2022-09-30T11:41:16;3.20;;;1.70;;
8819;SDS011;4446;50.876;4.736;2022-09-30T11:43:51;3.35;;;1.85;;
8819;SDS011;4446;50.876;4.736;2022-09-30T11:49:35;2.25;;;1.83;;
8819;SDS011;4446;50.876;4.736;2022-09-30T11:52:26;2.95;;;1.77;;
8819;SDS011;4446;50.876;4.736;2022-09-30T11:55:06;1.95;;;1.50;;
8819;SDS011;4446;50.876;4.736;2022-09-30T11:57:51;2.78;;;1.92;;
8819;SDS011;4446;50.876;4.736;2022-09-30T12:00:22;3.38;;;2.00;;
8819;SDS011;4446;50.876;4.736;2022-09-30T12:02:50;2.75;;;2.00;;
8819;SDS011;4446;50.876;4.736;2022-09-30T12:05:23;3.33;;;2.20;;
8819;SDS011;4446;50.876;4.736;2022-09-30T12:07:57;4.60;;;2.30;;
8819;SDS011;4446;50.876;4.736;2022-09-30T12:10:29;5.63;;;2.58;;
8819;SDS011;4446;50.876;4.736;2022-09-30T12:12:59;4.22;;;3.00;;
8819;SDS011;4446;50.876;4.736;2022-09-30T12:15:29;3.53;;;2.70;;
8819;SDS011;4446;50.876;4.736;2022-09-30T12:17:59;5.57;;;3.40;;
8819;SDS011;4446;50.876;4.736;2022-09-30T12:20:31;4.90;;;3.25;;
8819;SDS011;4446;50.876;4.736;2022-09-30T12:23:05;4.45;;;3.20;;
8819;SDS011;4446;50.876;4.736;2022-09-30T12:25:40;5.70;;;3.20;;
8819;SDS011;4446;50.876;4.736;2022-09-30T12:28:15;6.53;;;3.45;;
8819;SDS011;4446;50.876;4.736;2022-09-30T12:31:27;5.57;;;3.47;;
8819;SDS011;4446;50.876;4.736;2022-09-30T12:34:18;5.43;;;3.55;;
8819;SDS011;4446;50.876;4.736;2022-09-30T12:37:04;5.13;;;3.58;;
8819;SDS011;4446;50.876;4.736;2022-09-30T12:39:52;8.48;;;3.50;;
8819;SDS011;4446;50.876;4.736;2022-09-30T12:42:33;5.15;;;3.65;;
8819;SDS011;4446;50.876;4.736;2022-09-30T12:45:21;4.63;;;3.40;;
8819;SDS011;4446;50.876;4.736;2022-09-30T12:47:57;4.13;;;3.20;;
8819;SDS011;4446;50.876;4.736;2022-09-30T12:50:26;4.90;;;3.10;;
8819;SDS011;4446;50.876;4.736;2022-09-30T12:52:56;5.60;;;3.38;;
8819;SDS011;4446;50.876;4.736;2022-09-30T12:55:26;4.50;;;3.25;;
8819;SDS011;4446;50.876;4.736;2022-09-30T12:57:55;6.47;;;2.80;;
8819;SDS011;4446;50.876;4.736;2022-09-30T13:00:26;4.78;;;2.67;;
8819;SDS011;4446;50.876;4.736;2022-09-30T13:02:55;4.28;;;2.92;;
8819;SDS011;4446;50.876;4.736;2022-09-30T13:08:23;6.45;;;3.00;;
8819;SDS011;4446;50.876;4.736;2022-09-30T13:11:05;4.75;;;3.50;;
8819;SDS011;4446;50.876;4.736;2022-09-30T13:13:56;5.72;;;3.40;;
8819;SDS011;4446;50.876;4.736;2022-09-30T13:19:30;5.00;;;3.75;;
8819;SDS011;4446;50.876;4.736;2022-09-30T13:25:18;5.68;;;3.40;;
8819;SDS011;4446;50.876;4.736;2022-09-30T13:27:46;5.32;;;3.38;;
8819;SDS011;4446;50.876;4.736;2022-09-30T13:30:33;3.85;;;3.22;;
8819;SDS011;4446;50.876;4.736;2022-09-30T13:36:27;4.45;;;3.40;;
8819;SDS011;4446;50.876;4.736;2022-09-30T13:39:06;3.78;;;2.80;;
8819;SDS011;4446;50.876;4.736;2022-09-30T13:41:47;4.72;;;2.63;;
8819;SDS011;4446;50.876;4.736;2022-09-30T13:44:24;2.60;;;2.40;;
8819;SDS011;4446;50.876;4.736;2022-09-30T13:46:58;2.60;;;2.25;;
8819;SDS011;4446;50.876;4.736;2022-09-30T13:49:33;2.88;;;2.58;;
8819;SDS011;4446;50.876;4.736;2022-09-30T13:52:06;3.05;;;2.60;;
8819;SDS011;4446;50.876;4.736;2022-09-30T13:54:34;3.55;;;2.13;;
8819;SDS011;4446;50.876;4.736;2022-09-30T13:57:14;3.03;;;2.42;;
8819;SDS011;4446;50.876;4.736;2022-09-30T13:59:46;3.95;;;2.40;;
8819;SDS011;4446;50.876;4.736;2022-09-30T14:05:40;1.73;;;1.63;;
8819;SDS011;4446;50.876;4.736;2022-09-30T14:08:26;1.90;;;1.80;;
8819;SDS011;4446;50.876;4.736;2022-09-30T14:11:17;2.05;;;1.70;;
8819;SDS011;4446;50.876;4.736;2022-09-30T14:14:00;2.88;;;1.90;;
8819;SDS011;4446;50.876;4.736;2022-09-30T14:16:58;3.15;;;2.03;;
8819;SDS011;4446;50.876;4.736;2022-09-30T14:19:50;2.55;;;1.58;;
8819;SDS011;4446;50.876;4.736;2022-09-30T14:22:26;2.67;;;1.88;;
8819;SDS011;4446;50.876;4.736;2022-09-30T14:24:55;3.22;;;1.67;;
8819;SDS011;4446;50.876;4.736;2022-09-30T14:27:26;3.35;;;2.10;;
8819;SDS011;4446;50.876;4.736;2022-09-30T14:30:10;1.90;;;1.60;;
8819;SDS011;4446;50.876;4.736;2022-09-30T14:32:42;2.70;;;2.05;;
8819;SDS011;4446;50.876;4.736;2022-09-30T14:35:13;2.85;;;1.98;;
8819;SDS011;4446;50.876;4.736;2022-09-30T14:37:44;2.03;;;1.60;;
8819;SDS011;4446;50.876;4.736;2022-09-30T14:40:16;2.10;;;1.90;;
8819;SDS011;4446;50.876;4.736;2022-09-30T14:42:45;1.80;;;1.50;;
8819;SDS011;4446;50.876;4.736;2022-09-30T14:45:20;2.83;;;1.85;;
8819;SDS011;4446;50.876;4.736;2022-09-30T14:47:51;2.20;;;1.65;;
8819;SDS011;4446;50.876;4.736;2022-09-30T14:50:23;2.75;;;1.60;;
8819;SDS011;4446;50.876;4.736;2022-09-30T14:52:52;2.92;;;1.98;;
8819;SDS011;4446;50.876;4.736;2022-09-30T14:55:27;2.55;;;1.80;;
8819;SDS011;4446;50.876;4.736;2022-09-30T14:57:56;2.22;;;2.00;;
8819;SDS011;4446;50.876;4.736;2022-09-30T15:00:47;3.10;;;2.00;;
8819;SDS011;4446;50.876;4.736;2022-09-30T15:03:22;2.10;;;1.90;;
8819;SDS011;4446;50.876;4.736;2022-09-30T15:05:49;1.85;;;1.70;;
8819;SDS011;4446;50.876;4.736;2022-09-30T15:08:17;2.97;;;2.10;;
8819;SDS011;4446;50.876;4.736;2022-09-30T15:10:47;2.13;;;1.90;;
8819;SDS011;4446;50.876;4.736;2022-09-30T15:13:16;1.88;;;1.75;;
8819;SDS011;4446;50.876;4.736;2022-09-30T15:15:46;1.88;;;1.70;;
8819;SDS011;4446;50.876;4.736;2022-09-30T15:21:09;2.80;;;1.90;;
8819;SDS011;4446;50.876;4.736;2022-09-30T15:23:38;2.22;;;1.90;;
8819;SDS011;4446;50.876;4.736;2022-09-30T15:26:09;2.55;;;1.90;;
8819;SDS011;4446;50.876;4.736;2022-09-30T15:28:37;2.08;;;1.88;;
8819;SDS011;4446;50.876;4.736;2022-09-30T15:31:06;2.20;;;2.00;;
8819;SDS011;4446;50.876;4.736;2022-09-30T15:33:43;2.03;;;1.80;;
8819;SDS011;4446;50.876;4.736;2022-09-30T15:36:12;2.88;;;2.03;;
8819;SDS011;4446;50.876;4.736;2022-09-30T15:38:44;2.35;;;2.15;;
8819;SDS011;4446;50.876;4.736;2022-09-30T15:41:13;2.72;;;1.90;;
8819;SDS011;4446;50.876;4.736;2022-09-30T15:43:40;2.70;;;1.98;;
8819;SDS011;4446;50.876;4.736;2022-09-30T15:49:04;3.22;;;2.30;;
8819;SDS011;4446;50.876;4.736;2022-09-30T15:51:53;3.45;;;2.13;;
8819;SDS011;4446;50.876;4.736;2022-09-30T15:54:27;2.92;;;2.30;;
8819;SDS011;4446;50.876;4.736;2022-09-30T15:57:00;3.55;;;2.00;;
8819;SDS011;4446;50.876;4.736;2022-09-30T15:59:56;2.75;;;2.15;;
8819;SDS011;4446;50.876;4.736;2022-09-30T16:02:28;2.35;;;1.83;;
8819;SDS011;4446;50.876;4.736;2022-09-30T16:04:56;3.72;;;2.03;;
8819;SDS011;4446;50.876;4.736;2022-09-30T16:07:26;2.88;;;2.08;;